Station Historical Data
Daily Summary for November 9, 2017 Units:  English    Metric   Both
« Previous Day
Next Day »
Daily Weekly Monthly Yearly Custom
  High: Low: Average:
Temperature: 53.1 °F 45.3 °F 49.8 °F
Dew Point: 50.8 °F 43.7 °F 47.8 °F
Humidity: 94% 90% 93%
Wind Speed: 4.6mph 0.0mph 0.3mph
Wind Gust: 4.6mph - -
Wind- - WSW
Pressure: 30.17 in 30.08 in -
Precipitation: 0.55 in    
Historical Graphs
 
 
Tabular Data for November 9, 2017
Time Temperature Dew Point Pressure Wind Wind Speed Wind Gust Humidity Rainfall Rate (Hourly) solar Conditions
00:02 50.1 °F 48.2 °F 30.13 in Calm     93% 0.00 in WeatherDisplay:10.37 W/m2 OVC
00:07 50.2 °F 48.3 °F 30.13 in Calm     93% 0.00 in WeatherDisplay:10.37 W/m2 OVC
00:12 50.2 °F 48.3 °F 30.13 in WNW 1.2 mph 1.2 mph 93% 0.00 in WeatherDisplay:10.37 W/m2 OVC
00:17 50.1 °F 48.2 °F 30.12 in Calm     93% 0.00 in WeatherDisplay:10.37 W/m2 OVC
00:22 50.1 °F 48.2 °F 30.12 in Calm     93% 0.00 in WeatherDisplay:10.37 W/m2 OVC
00:27 50.2 °F 48.3 °F 30.12 in Calm   0.1 mph 93% 0.00 in WeatherDisplay:10.37 W/m2 OVC
00:32 50.1 °F 48.2 °F 30.12 in Calm     93% 0.00 in WeatherDisplay:10.37 W/m2 OVC
00:37 50.1 °F 47.9 °F 30.12 in West 1.2 mph   92% 0.00 in WeatherDisplay:10.37 W/m2 OVC
00:43 50.0 °F 48.1 °F 30.12 in Calm     93% 0.00 in WeatherDisplay:10.37 W/m2 OVC
00:48 50.0 °F 47.8 °F 30.12 in West 1.2 mph   92% 0.00 in WeatherDisplay:10.37 W/m2 OVC
00:53 50.0 °F 47.8 °F 30.12 in West 1.2 mph   92% 0.00 in WeatherDisplay:10.37 W/m2 OVC
00:58 50.0 °F 47.8 °F 30.13 in Calm     92% 0.00 in WeatherDisplay:10.37 W/m2 OVC
01:03 50.0 °F 47.8 °F 30.12 in Calm     92% 0.00 in WeatherDisplay:10.37 W/m2 -DZ
01:08 49.9 °F 47.7 °F 30.13 in West 1.2 mph 1.2 mph 92% 0.00 in WeatherDisplay:10.37 W/m2 -DZ
01:13 49.8 °F 47.6 °F 30.13 in West 1.2 mph 1.2 mph 92% 0.00 in WeatherDisplay:10.37 W/m2 OVC
01:18 49.8 °F 47.6 °F 30.13 in West 1.2 mph 1.2 mph 92% 0.00 in WeatherDisplay:10.37 W/m2 OVC
01:23 49.7 °F 47.5 °F 30.12 in West 1.2 mph 1.2 mph 92% 0.01 in WeatherDisplay:10.37 W/m2 -DZ
01:28 49.6 °F 47.4 °F 30.12 in Calm     92% 0.01 in WeatherDisplay:10.37 W/m2 -DZ
01:33 49.5 °F 47.3 °F 30.12 in Calm     92% 0.02 in WeatherDisplay:10.37 W/m2 -DZ
01:39 49.5 °F 47.3 °F 30.12 in Calm     92% 0.03 in WeatherDisplay:10.37 W/m2 -DZ
01:44 49.4 °F 47.2 °F 30.13 in Calm     92% 0.03 in WeatherDisplay:10.37 W/m2 -DZ
01:49 49.3 °F 47.1 °F 30.13 in Calm     92% 0.04 in WeatherDisplay:10.37 W/m2 -DZ
01:54 49.3 °F 47.4 °F 30.13 in Calm     93% 0.06 in WeatherDisplay:10.37 W/m2 -RA
01:59 49.3 °F 47.4 °F 30.13 in Calm     93% 0.07 in WeatherDisplay:10.37 W/m2 -RA
02:04 49.2 °F 47.3 °F 30.13 in WNW 1.2 mph 1.2 mph 93% 0.08 in WeatherDisplay:10.37 W/m2 -RA
02:09 49.2 °F 47.3 °F 30.13 in West 1.2 mph 1.2 mph 93% 0.09 in WeatherDisplay:10.37 W/m2 -RA
02:14 49.2 °F 47.3 °F 30.13 in Calm     93% 0.09 in WeatherDisplay:10.37 W/m2 -RA
02:19 49.1 °F 47.2 °F 30.13 in Calm     93% 0.09 in WeatherDisplay:10.37 W/m2 -RA
02:24 49.1 °F 47.2 °F 30.13 in Calm     93% 0.09 in WeatherDisplay:10.37 W/m2 -RA
02:29 49.1 °F 47.2 °F 30.12 in Calm     93% 0.09 in WeatherDisplay:10.37 W/m2 -RA
02:34 49.1 °F 47.2 °F 30.13 in Calm     93% 0.11 in WeatherDisplay:10.37 W/m2 -RA
02:39 49.1 °F 47.2 °F 30.13 in West 1.2 mph   93% 0.11 in WeatherDisplay:10.37 W/m2 -RA
02:44 49.0 °F 47.1 °F 30.13 in Calm     93% 0.11 in WeatherDisplay:10.37 W/m2 -RA
02:49 49.1 °F 47.2 °F 30.12 in West 1.2 mph   93% 0.11 in WeatherDisplay:10.37 W/m2 -RA
02:54 49.0 °F 47.1 °F 30.12 in Calm     93% 0.11 in WeatherDisplay:10.37 W/m2 -RA
02:59 49.0 °F 47.1 °F 30.12 in West 1.2 mph   93% 0.11 in WeatherDisplay:10.37 W/m2 -RA
03:04 49.1 °F 47.2 °F 30.11 in Calm     93% 0.11 in WeatherDisplay:10.37 W/m2 -RA
03:09 49.0 °F 47.1 °F 30.11 in WNW 1.2 mph 1.2 mph 93% 0.11 in WeatherDisplay:10.37 W/m2 -RA
03:14 49.0 °F 47.1 °F 30.10 in West 2.0 mph 2.0 mph 93% 0.12 in WeatherDisplay:10.37 W/m2 -RA
03:19 48.9 °F 47.0 °F 30.10 in Calm     93% 0.12 in WeatherDisplay:10.37 W/m2 -RA
03:24 48.9 °F 47.0 °F 30.11 in West 1.2 mph 1.2 mph 93% 0.13 in WeatherDisplay:10.37 W/m2 -RA
03:30 48.8 °F 46.9 °F 30.10 in West 1.2 mph   93% 0.13 in WeatherDisplay:10.37 W/m2 -RA
03:35 48.7 °F 46.8 °F 30.10 in Calm   1.0 mph 93% 0.02 in WeatherDisplay:10.37 W/m2 -RA
03:40 48.6 °F 46.7 °F 30.09 in Calm   1.0 mph 93% 0.01 in WeatherDisplay:10.37 W/m2 -RA
03:45 48.5 °F 46.6 °F 30.09 in Calm   1.0 mph 93% 0.00 in WeatherDisplay:10.37 W/m2 -RA
03:50 48.4 °F 46.5 °F 30.08 in Calm   1.0 mph 93% 0.00 in WeatherDisplay:10.37 W/m2 -RA
03:55 48.3 °F 46.4 °F 30.09 in Calm   1.0 mph 93% 0.00 in WeatherDisplay:10.37 W/m2 -RA
04:00 48.3 °F 46.4 °F 30.09 in Calm   1.0 mph 93% 0.00 in WeatherDisplay:10.37 W/m2 -RA
04:05 48.2 °F 46.3 °F 30.09 in Calm   1.0 mph 93% 0.01 in WeatherDisplay:10.37 W/m2 -RA
04:10 48.1 °F 46.2 °F 30.09 in West 1.0 mph 2.0 mph 93% 0.00 in WeatherDisplay:10.37 W/m2 -RA
04:15 48.1 °F 46.2 °F 30.09 in Calm   1.0 mph 93% 0.00 in WeatherDisplay:10.37 W/m2 -RA
04:20 48.0 °F 46.1 °F 30.10 in Calm   1.0 mph 93% 0.00 in WeatherDisplay:10.37 W/m2 -RA
04:25 48.0 °F 46.1 °F 30.10 in Calm   1.0 mph 93% 0.00 in WeatherDisplay:10.37 W/m2 -RA
04:30 48.0 °F 46.1 °F 30.10 in Calm   1.0 mph 93% 0.01 in WeatherDisplay:10.37 W/m2 -RA
04:35 48.1 °F 46.2 °F 30.10 in Calm   1.0 mph 93% 0.01 in WeatherDisplay:10.37 W/m2 -RA
04:40 48.1 °F 46.2 °F 30.10 in Calm     93% 0.00 in WeatherDisplay:10.37 W/m2 -RA
04:45 48.1 °F 46.2 °F 30.11 in Calm   1.0 mph 93% 0.00 in WeatherDisplay:10.37 W/m2 -RA
04:50 48.1 °F 46.2 °F 30.11 in Calm     93% 0.00 in WeatherDisplay:10.37 W/m2 -RA
04:55 48.1 °F 46.2 °F 30.10 in Calm   1.0 mph 93% 0.02 in WeatherDisplay:10.37 W/m2 -RA
05:00 48.1 °F 46.2 °F 30.11 in Calm     93% 0.00 in WeatherDisplay:10.37 W/m2 -RA
05:05 48.1 °F 46.2 °F 30.11 in Calm   1.0 mph 93% 0.00 in WeatherDisplay:10.37 W/m2 -RA
05:10 48.1 °F 46.2 °F 30.11 in Calm     93% 0.00 in WeatherDisplay:10.37 W/m2 -RA
05:15 48.1 °F 46.2 °F 30.11 in Calm     93% 0.01 in WeatherDisplay:10.37 W/m2 -RA
05:20 48.1 °F 46.2 °F 30.11 in Calm     93% 0.09 in WeatherDisplay:10.37 W/m2 -RA
05:25 48.1 °F 46.2 °F 30.11 in West 1.2 mph   93% 0.08 in WeatherDisplay:10.37 W/m2 -RA
05:30 48.1 °F 46.5 °F 30.11 in Calm     94% 0.09 in WeatherDisplay:10.37 W/m2 -RA
05:35 48.2 °F 46.5 °F 30.11 in Calm     94% 0.00 in WeatherDisplay:10.37 W/m2 -RA
05:40 48.2 °F 46.5 °F 30.11 in Calm   1.0 mph 94% 0.00 in WeatherDisplay:10.37 W/m2 -RA
05:45 48.2 °F 46.6 °F 30.11 in Calm     94% 0.01 in WeatherDisplay:10.37 W/m2 -RA
05:50 48.3 °F 46.7 °F 30.11 in Calm     94% 0.00 in WeatherDisplay:10.37 W/m2 -RA
05:55 48.3 °F 46.7 °F 30.12 in Calm     94% 0.00 in WeatherDisplay:10.37 W/m2 -RA
06:00 48.3 °F 46.7 °F 30.12 in Calm     94% 0.00 in WeatherDisplay:10.37 W/m2 -RA
06:05 48.4 °F 46.8 °F 30.12 in Calm     94% 0.04 in WeatherDisplay:10.37 W/m2 OVC
06:10 48.5 °F 46.8 °F 30.13 in Calm     94% 0.00 in WeatherDisplay:10.37 W/m2 OVC
06:15 48.4 °F 46.8 °F 30.13 in Calm     94% 0.01 in WeatherDisplay:10.37 W/m2 -DZ
06:20 48.4 °F 46.8 °F 30.13 in Calm     94% 0.00 in WeatherDisplay:10.37 W/m2 -DZ
06:25 48.4 °F 46.8 °F 30.13 in Calm   1.0 mph 94% 0.00 in WeatherDisplay:10.37 W/m2 -DZ
06:30 48.3 °F 46.7 °F 30.13 in Calm     94% 0.00 in WeatherDisplay:10.37 W/m2 -DZ
06:35 48.3 °F 46.7 °F 30.12 in Calm   1.0 mph 94% 0.01 in WeatherDisplay:10.37 W/m2 -DZ
06:40 48.2 °F 46.3 °F 30.12 in Calm   1.0 mph 93% 0.00 in WeatherDisplay:10.37 W/m2 -DZ
06:45 48.3 °F 46.7 °F 30.13 in Calm     94% 0.01 in WeatherDisplay:10.37 W/m2 -RA
06:50 48.4 °F 46.8 °F 30.13 in Calm     94% 0.00 in WeatherDisplay:10.37 W/m2 -RA
06:55 48.4 °F 46.8 °F 30.13 in Calm     94% 0.00 in WeatherDisplay:10.37 W/m2 -RA
07:00 48.4 °F 46.8 °F 30.13 in Calm     94% 0.00 in WeatherDisplay:10.37 W/m2 -RA
07:05 48.5 °F 46.9 °F 30.13 in Calm     94% 0.06 in WeatherDisplay:10.37 W/m2 -RA
07:10 48.5 °F 46.9 °F 30.14 in Calm     94% 0.06 in WeatherDisplay:10.37 W/m2 -RA
07:15 48.4 °F 46.8 °F 30.14 in Calm     94% 0.06 in WeatherDisplay:10.37 W/m2 -RA
07:20 48.4 °F 46.8 °F 30.14 in Calm     94% 0.06 in WeatherDisplay:10.37 W/m2 -RA
07:25 48.5 °F 46.9 °F 30.14 in Calm     94% 0.07 in WeatherDisplay:10.37 W/m2 -RA
07:30 48.5 °F 46.9 °F 30.15 in Calm     94% 0.06 in WeatherDisplay:10.37 W/m2 -RA
07:35 48.6 °F 47.0 °F 30.15 in Calm     94% 0.06 in WeatherDisplay:10.37 W/m2 -RA
07:40 48.7 °F 47.1 °F 30.15 in Calm     94% 0.06 in WeatherDisplay:10.37 W/m2 -RA
07:45 48.7 °F 47.1 °F 30.15 in Calm     94% 0.05 in WeatherDisplay:10.37 W/m2 -RA
07:50 48.7 °F 47.1 °F 30.15 in Calm     94% 0.06 in WeatherDisplay:10.37 W/m2 -RA
07:55 48.8 °F 47.2 °F 30.15 in Calm     94% 0.06 in WeatherDisplay:10.37 W/m2 -RA
08:00 48.9 °F 47.2 °F 30.15 in Calm     94% 0.06 in WeatherDisplay:10.37 W/m2 -RA
08:05 48.9 °F 47.2 °F 30.15 in Calm     94% 0.06 in WeatherDisplay:10.37 W/m2 -RA
08:10 49.0 °F 47.3 °F 30.15 in Calm     94% 0.06 in WeatherDisplay:10.37 W/m2 -RA
08:15 49.0 °F 47.3 °F 30.15 in Calm     94% 0.05 in WeatherDisplay:10.37 W/m2 -RA
08:20 49.1 °F 47.4 °F 30.15 in Calm     94% 0.06 in WeatherDisplay:10.37 W/m2 -RA
08:25 49.1 °F 47.4 °F 30.15 in Calm     94% 0.05 in WeatherDisplay:10.37 W/m2 -RA
08:30 49.1 °F 47.4 °F 30.15 in Calm     94% 0.05 in WeatherDisplay:10.37 W/m2 -RA
08:36 49.2 °F 47.5 °F 30.15 in Calm     94% 0.04 in WeatherDisplay:10.37 W/m2 -RA
08:41 49.2 °F 47.5 °F 30.15 in Calm     94% 0.04 in WeatherDisplay:10.37 W/m2 -RA
08:46 49.2 °F 47.5 °F 30.16 in Calm     94% 0.04 in WeatherDisplay:10.37 W/m2 -RA
08:51 49.2 °F 47.5 °F 30.16 in Calm     94% 0.04 in WeatherDisplay:10.37 W/m2 -RA
08:56 49.3 °F 47.6 °F 30.16 in Calm     94% 0.03 in WeatherDisplay:10.37 W/m2 -RA
09:01 49.3 °F 47.6 °F 30.16 in Calm     94% 0.03 in WeatherDisplay:10.37 W/m2 -RA
09:06 49.3 °F 47.6 °F 30.17 in Calm     94% 0.02 in WeatherDisplay:10.37 W/m2 -DZ
09:11 49.4 °F 47.7 °F 30.17 in Calm     94% 0.02 in WeatherDisplay:10.37 W/m2 -DZ
09:16 49.3 °F 47.6 °F 30.16 in Calm     94% 0.02 in WeatherDisplay:10.37 W/m2 -DZ
09:21 49.4 °F 47.7 °F 30.16 in Calm     94% 0.01 in WeatherDisplay:10.37 W/m2 OVC
09:26 49.5 °F 47.8 °F 30.16 in Calm     94% 0.01 in WeatherDisplay:10.37 W/m2 OVC
09:31 49.6 °F 47.9 °F 30.16 in Calm     94% 0.01 in WeatherDisplay:10.37 W/m2 OVC
09:36 49.7 °F 48.0 °F 30.16 in Calm     94% 0.01 in WeatherDisplay:10.37 W/m2 OVC
09:41 49.8 °F 48.1 °F 30.16 in Calm     94% 0.01 in WeatherDisplay:10.37 W/m2 OVC
09:46 49.9 °F 48.2 °F 30.16 in Calm     94% 0.00 in WeatherDisplay:10.37 W/m2 OVC
09:51 49.9 °F 48.2 °F 30.16 in Calm     94% 0.00 in WeatherDisplay:10.37 W/m2 OVC
09:56 50.0 °F 48.3 °F 30.16 in Calm     94% 0.00 in WeatherDisplay:10.37 W/m2 OVC
10:01 50.1 °F 48.4 °F 30.16 in Calm     94% 0.00 in WeatherDisplay:10.37 W/m2 OVC
10:06 50.1 °F 48.4 °F 30.16 in Calm     94% 0.00 in WeatherDisplay:10.37 W/m2 OVC
10:11 50.2 °F 48.5 °F 30.16 in Calm     94% 0.00 in WeatherDisplay:10.37 W/m2 -DZ
10:16 50.1 °F 48.4 °F 30.16 in Calm     94% 0.00 in WeatherDisplay:10.37 W/m2 -DZ
10:21 50.3 °F 48.6 °F 30.16 in Calm     94% 0.00 in WeatherDisplay:10.37 W/m2 -DZ
10:26 50.3 °F 48.6 °F 30.16 in Calm     94% 0.00 in WeatherDisplay:10.37 W/m2 -DZ
10:31 50.2 °F 48.3 °F 30.16 in Calm     93% 0.00 in WeatherDisplay:10.37 W/m2 -DZ
10:36 50.3 °F 48.4 °F 30.16 in Calm     93% 0.00 in WeatherDisplay:10.37 W/m2 -DZ
10:41 50.4 °F 48.5 °F 30.16 in Calm     93% 0.01 in WeatherDisplay:10.37 W/m2 -DZ
10:46 50.4 °F 48.5 °F 30.16 in Calm     93% 0.01 in WeatherDisplay:10.37 W/m2 -DZ
10:52 50.4 °F 48.5 °F 30.15 in Calm     93% 0.01 in WeatherDisplay:10.37 W/m2 -DZ
10:57 50.5 °F 48.6 °F 30.13 in Calm     93% 0.01 in WeatherDisplay:10.37 W/m2 -DZ
11:02 50.7 °F 48.7 °F 30.13 in WNW 1.2 mph 1.2 mph 93% 0.01 in WeatherDisplay:10.37 W/m2 OVC
11:07 50.6 °F 48.7 °F 30.14 in Calm     93% 0.01 in WeatherDisplay:10.37 W/m2 OVC
11:12 50.7 °F 48.7 °F 30.15 in Calm     93% 0.01 in WeatherDisplay:10.37 W/m2 OVC
11:17 50.6 °F 48.7 °F 30.14 in Calm     93% 0.01 in WeatherDisplay:10.37 W/m2 OVC
11:22 50.8 °F 48.8 °F 30.14 in Calm     93% 0.01 in WeatherDisplay:10.37 W/m2 OVC
11:26 50.9 °F 48.9 °F 30.14 in Calm     93% 0.01 in WeatherDisplay:10.37 W/m2 OVC
11:31 50.8 °F 48.8 °F 30.14 in Calm     93% 0.01 in WeatherDisplay:10.37 W/m2 OVC
11:36 50.7 °F 48.7 °F 30.14 in Calm     93% 0.01 in WeatherDisplay:10.37 W/m2 OVC
11:41 50.7 °F 48.7 °F 30.14 in Calm     93% 0.00 in WeatherDisplay:10.37 W/m2 OVC
11:46 50.8 °F 48.8 °F 30.15 in Calm     93% 0.00 in WeatherDisplay:10.37 W/m2 OVC
11:51 50.9 °F 48.9 °F 30.15 in Calm     93% 0.00 in WeatherDisplay:10.37 W/m2 OVC
11:56 50.9 °F 48.9 °F 30.15 in Calm     93% 0.00 in WeatherDisplay:10.37 W/m2 OVC
12:01 51.0 °F 49.0 °F 30.15 in Calm     93% 0.00 in WeatherDisplay:10.37 W/m2 OVC
12:06 51.1 °F 49.1 °F 30.15 in Calm     93% 0.00 in WeatherDisplay:10.37 W/m2 OVC
12:11 51.2 °F 49.2 °F 30.15 in Calm     93% 0.00 in WeatherDisplay:10.37 W/m2 OVC
12:16 51.0 °F 48.8 °F 30.15 in Calm     92% 0.00 in WeatherDisplay:10.37 W/m2 OVC
12:21 51.1 °F 48.9 °F 30.14 in Calm     92% 0.00 in WeatherDisplay:10.37 W/m2 OVC
12:26 51.2 °F 49.2 °F 30.14 in Calm     93% 0.00 in WeatherDisplay:10.37 W/m2 OVC
12:28 51.3 °F 49.3 °F 30.14 in Calm     93% 0.00 in WeatherDisplay:10.37 W/m2 OVC
12:33 51.4 °F 49.4 °F 30.14 in Calm     93% 0.00 in WeatherDisplay:10.37 W/m2 OVC
12:38 51.4 °F 49.4 °F 30.13 in Calm     93% 0.00 in WeatherDisplay:10.37 W/m2 OVC
12:43 51.5 °F 49.5 °F 30.13 in NNW 1.0 mph 1.0 mph 93% 0.00 in WeatherDisplay:10.37 W/m2 OVC
12:48 51.5 °F 49.3 °F 30.12 in Calm     92% 0.00 in WeatherDisplay:10.37 W/m2 OVC
12:53 51.7 °F 49.5 °F 30.12 in East 1.0 mph 1.0 mph 92% 0.00 in WeatherDisplay:10.37 W/m2 OVC
12:58 51.8 °F 49.5 °F 30.12 in East 1.2 mph 1.2 mph 92% 0.00 in WeatherDisplay:10.37 W/m2 OVC
13:03 51.8 °F 49.5 °F 30.12 in Calm     92% 0.00 in WeatherDisplay:10.37 W/m2 OVC
13:08 51.9 °F 49.6 °F 30.12 in SW 1.2 mph   92% 0.00 in WeatherDisplay:10.37 W/m2 OVC
13:13 52.1 °F 49.8 °F 30.12 in Calm     92% 0.00 in WeatherDisplay:10.37 W/m2 OVC
13:18 52.1 °F 49.8 °F 30.12 in Calm     92% 0.00 in WeatherDisplay:10.37 W/m2 OVC
13:23 52.1 °F 49.8 °F 30.12 in Calm     92% 0.00 in WeatherDisplay:10.37 W/m2 OVC
13:28 52.2 °F 49.9 °F 30.12 in WNW 1.2 mph   92% 0.00 in WeatherDisplay:10.37 W/m2 OVC
13:33 52.3 °F 50.0 °F 30.12 in SSW 1.2 mph   92% 0.00 in WeatherDisplay:10.37 W/m2 OVC
13:38 52.3 °F 50.0 °F 30.12 in Calm     92% 0.00 in WeatherDisplay:10.37 W/m2 OVC
13:43 52.3 °F 50.0 °F 30.12 in Calm     92% 0.00 in WeatherDisplay:10.37 W/m2 OVC
13:48 52.3 °F 50.0 °F 30.12 in Calm     92% 0.00 in WeatherDisplay:10.37 W/m2 OVC
13:54 52.3 °F 50.0 °F 30.12 in SSW 1.2 mph   92% 0.00 in WeatherDisplay:10.37 W/m2 OVC
13:59 52.3 °F 50.0 °F 30.12 in Calm     92% 0.00 in WeatherDisplay:10.37 W/m2 OVC
14:04 52.3 °F 50.0 °F 30.12 in Calm     92% 0.00 in WeatherDisplay:10.37 W/m2 OVC
14:09 52.2 °F 49.9 °F 30.12 in Calm     92% 0.00 in WeatherDisplay:10.37 W/m2 OVC
14:14 52.2 °F 49.9 °F 30.12 in Calm   0.1 mph 92% 0.00 in WeatherDisplay:10.37 W/m2 OVC
14:19 52.3 °F 50.3 °F 30.12 in Calm     93% 0.00 in WeatherDisplay:10.37 W/m2 OVC
14:24 52.4 °F 50.4 °F 30.12 in Calm     93% 0.00 in WeatherDisplay:10.37 W/m2 OVC
14:29 52.6 °F 50.6 °F 30.12 in Calm     93% 0.00 in WeatherDisplay:10.37 W/m2 OVC
14:34 52.8 °F 50.8 °F 30.12 in East 1.2 mph   93% 0.00 in WeatherDisplay:10.37 W/m2 OVC
14:39 52.7 °F 50.4 °F 30.12 in East 1.2 mph   92% 0.00 in WeatherDisplay:10.37 W/m2 OVC
14:40 52.7 °F 50.5 °F 30.12 in Calm   1.0 mph 92% 0.00 in WeatherDisplay:10.37 W/m2 OVC
14:45 52.8 °F 50.5 °F 30.12 in Calm   3.0 mph 92% 0.00 in WeatherDisplay:10.37 W/m2 OVC
14:50 52.8 °F 50.5 °F 30.12 in Calm   1.0 mph 92% 0.00 in WeatherDisplay:10.37 W/m2 OVC
14:55 52.8 °F 50.5 °F 30.12 in Calm   1.0 mph 92% 0.00 in WeatherDisplay:10.37 W/m2 OVC
15:00 52.6 °F 50.0 °F 30.12 in SW 1.0 mph 1.0 mph 91% 0.00 in WeatherDisplay:10.37 W/m2 OVC
15:05 52.5 °F 49.9 °F 30.12 in West 1.2 mph 1.2 mph 91% 0.00 in WeatherDisplay:10.37 W/m2 OVC
15:10 52.5 °F 49.9 °F 30.12 in Calm     91% 0.00 in WeatherDisplay:10.37 W/m2 OVC
15:15 52.6 °F 50.0 °F 30.12 in Calm     91% 0.00 in WeatherDisplay:10.37 W/m2 OVC
15:20 52.9 °F 50.3 °F 30.12 in WSW 1.2 mph   91% 0.00 in WeatherDisplay:10.37 W/m2 OVC
15:25 53.0 °F 50.4 °F 30.13 in Calm     91% 0.00 in WeatherDisplay:10.37 W/m2 OVC
15:30 53.1 °F 50.2 °F 30.13 in Calm     90% 0.00 in WeatherDisplay:10.37 W/m2 OVC
15:35 53.1 °F 50.5 °F 30.14 in NE 1.2 mph 1.2 mph 91% 0.00 in WeatherDisplay:10.37 W/m2 OVC
15:40 52.9 °F 50.0 °F 30.14 in Calm     90% 0.00 in WeatherDisplay:10.37 W/m2 OVC
15:45 52.8 °F 49.9 °F 30.14 in Calm     90% 0.00 in WeatherDisplay:10.37 W/m2 OVC
15:50 52.7 °F 49.8 °F 30.14 in Calm     90% 0.00 in WeatherDisplay:10.37 W/m2 OVC
15:55 52.7 °F 50.1 °F 30.14 in Calm     91% 0.00 in WeatherDisplay:10.37 W/m2 OVC
16:01 52.7 °F 50.1 °F 30.13 in Calm     91% 0.00 in WeatherDisplay:10.37 W/m2 OVC
16:06 52.7 °F 50.1 °F 30.13 in Calm     91% 0.00 in WeatherDisplay:10.37 W/m2 OVC
16:11 52.7 °F 50.1 °F 30.14 in ESE 1.2 mph 1.2 mph 91% 0.00 in WeatherDisplay:10.37 W/m2 OVC
16:16 52.7 °F 49.8 °F 30.13 in SW 2.3 mph 2.3 mph 90% 0.00 in WeatherDisplay:10.37 W/m2 OVC
16:21 52.6 °F 49.8 °F 30.13 in Calm     90% 0.00 in WeatherDisplay:10.37 W/m2 OVC
16:26 52.7 °F 49.8 °F 30.13 in West 3.5 mph 3.5 mph 90% 0.00 in WeatherDisplay:10.37 W/m2 OVC
16:31 52.8 °F 50.2 °F 30.13 in WSW 1.2 mph 1.2 mph 91% 0.00 in WeatherDisplay:10.37 W/m2 RA
16:36 52.8 °F 50.2 °F 30.13 in West 1.0 mph   91% 0.00 in WeatherDisplay:10.37 W/m2 OVC
16:41 52.8 °F 49.9 °F 30.13 in SE 1.2 mph   90% 0.00 in WeatherDisplay:10.37 W/m2 OVC
16:47 52.8 °F 49.9 °F 30.13 in Calm     90% 0.00 in WeatherDisplay:10.37 W/m2 OVC
16:52 52.8 °F 49.9 °F 30.13 in Calm     90% 0.00 in WeatherDisplay:10.37 W/m2 OVC
16:57 52.8 °F 49.9 °F 30.13 in SE 1.2 mph   90% 0.00 in WeatherDisplay:10.37 W/m2 OVC
17:02 52.8 °F 49.9 °F 30.13 in Calm     90% 0.00 in WeatherDisplay:10.37 W/m2 OVC
17:07 52.8 °F 49.9 °F 30.13 in West 2.3 mph   90% 0.00 in WeatherDisplay:10.37 W/m2 OVC
17:12 52.8 °F 49.9 °F 30.14 in Calm     90% 0.00 in WeatherDisplay:10.37 W/m2 OVC
17:17 52.7 °F 49.8 °F 30.14 in WSW 4.6 mph 4.6 mph 90% 0.00 in WeatherDisplay:10.37 W/m2 OVC
17:22 52.6 °F 49.8 °F 30.14 in Calm     90% 0.00 in WeatherDisplay:10.37 W/m2 OVC
17:27 52.6 °F 49.8 °F 30.14 in Calm     90% 0.00 in WeatherDisplay:10.37 W/m2 OVC
17:32 52.6 °F 49.8 °F 30.14 in SSW 4.6 mph 4.6 mph 90% 0.00 in WeatherDisplay:10.37 W/m2 OVC
17:37 52.5 °F 49.7 °F 30.14 in Calm     90% 0.00 in WeatherDisplay:10.37 W/m2 OVC
17:42 52.5 °F 49.7 °F 30.15 in WSW 1.2 mph 1.2 mph 90% 0.00 in WeatherDisplay:10.37 W/m2 OVC
17:47 52.4 °F 49.6 °F 30.15 in WSW 1.2 mph   90% 0.00 in WeatherDisplay:10.37 W/m2 OVC
17:52 52.3 °F 49.5 °F 30.15 in Calm     90% 0.00 in WeatherDisplay:10.37 W/m2 OVC
17:57 52.2 °F 49.4 °F 30.15 in SW 3.1 mph 3.1 mph 90% 0.00 in WeatherDisplay:10.37 W/m2 OVC
18:02 52.2 °F 49.4 °F 30.15 in WSW 1.0 mph 1.0 mph 90% 0.00 in WeatherDisplay:10.37 W/m2 OVC
18:07 52.1 °F 49.3 °F 30.15 in WNW 1.0 mph 1.0 mph 90% 0.00 in WeatherDisplay:10.37 W/m2 OVC
18:12 52.1 °F 49.3 °F 30.15 in Calm     90% 0.00 in WeatherDisplay:10.37 W/m2 OVC
18:17 52.0 °F 49.2 °F 30.15 in Calm     90% 0.00 in WeatherDisplay:10.37 W/m2 OVC
18:22 52.0 °F 49.2 °F 30.15 in West 1.2 mph 1.2 mph 90% 0.00 in WeatherDisplay:10.37 W/m2 OVC
18:28 52.0 °F 49.2 °F 30.15 in West 1.2 mph   90% 0.00 in WeatherDisplay:10.37 W/m2 OVC
18:33 51.9 °F 49.1 °F 30.16 in Calm     90% 0.00 in WeatherDisplay:10.37 W/m2 OVC
18:38 51.8 °F 49.0 °F 30.16 in Calm     90% 0.00 in WeatherDisplay:10.37 W/m2 OVC
18:43 51.7 °F 48.9 °F 30.16 in WSW 1.2 mph   90% 0.00 in WeatherDisplay:10.37 W/m2 OVC
18:48 51.5 °F 48.7 °F 30.17 in Calm     90% 0.00 in WeatherDisplay:10.37 W/m2 OVC
18:53 51.3 °F 48.5 °F 30.17 in Calm     90% 0.00 in WeatherDisplay:10.37 W/m2 OVC
18:58 51.1 °F 48.6 °F 30.17 in Calm     91% 0.00 in WeatherDisplay:10.37 W/m2 OVC
19:03 50.9 °F 48.4 °F 30.17 in Calm     91% 0.00 in WeatherDisplay:10.37 W/m2 BKN
19:08 50.6 °F 48.1 °F 30.17 in Calm     91% 0.00 in WeatherDisplay:10.37 W/m2 BKN
19:13 50.4 °F 47.9 °F 30.16 in Calm     91% 0.00 in WeatherDisplay:10.37 W/m2 BKN
19:18 50.2 °F 47.7 °F 30.13 in Calm     91% 0.00 in WeatherDisplay:10.37 W/m2 SCT
19:23 50.0 °F 47.5 °F 30.13 in Calm     91% 0.00 in WeatherDisplay:10.37 W/m2 SCT
19:28 50.0 °F 47.5 °F 30.13 in Calm     91% 0.00 in WeatherDisplay:10.37 W/m2 SCT
19:33 50.0 °F 47.5 °F 30.13 in Calm     91% 0.00 in WeatherDisplay:10.37 W/m2 SCT
19:38 50.0 °F 47.5 °F 30.13 in Calm     91% 0.00 in WeatherDisplay:10.37 W/m2 SCT
19:43 50.0 °F 47.5 °F 30.13 in Calm     91% 0.00 in WeatherDisplay:10.37 W/m2 SCT
19:48 50.0 °F 47.5 °F 30.13 in Calm     91% 0.00 in WeatherDisplay:10.37 W/m2 SCT
19:53 50.0 °F 47.5 °F 30.13 in Calm     91% 0.00 in WeatherDisplay:10.37 W/m2 SCT
19:58 50.0 °F 47.5 °F 30.13 in Calm     91% 0.00 in WeatherDisplay:10.37 W/m2 SCT
20:03 50.0 °F 47.5 °F 30.14 in Calm     91% 0.00 in WeatherDisplay:10.37 W/m2 CLR
20:09 50.0 °F 47.5 °F 30.14 in Calm     91% 0.00 in WeatherDisplay:10.37 W/m2 CLR
20:14 50.0 °F 47.5 °F 30.14 in Calm     91% 0.00 in WeatherDisplay:10.37 W/m2 CLR
20:19 50.0 °F 47.5 °F 30.14 in Calm     91% 0.00 in WeatherDisplay:10.37 W/m2 CLR
20:24 50.0 °F 47.5 °F 30.14 in Calm     91% 0.00 in WeatherDisplay:10.37 W/m2 CLR
20:29 50.0 °F 47.5 °F 30.14 in Calm     91% 0.00 in WeatherDisplay:10.37 W/m2 CLR
20:34 50.0 °F 47.5 °F 30.14 in Calm     91% 0.00 in WeatherDisplay:10.37 W/m2 CLR
20:39 50.0 °F 47.5 °F 30.14 in Calm     91% 0.00 in WeatherDisplay:10.37 W/m2 CLR
20:44 50.0 °F 47.5 °F 30.14 in Calm     91% 0.00 in WeatherDisplay:10.37 W/m2 CLR
20:49 50.0 °F 47.5 °F 30.14 in Calm     91% 0.00 in WeatherDisplay:10.37 W/m2 CLR
20:54 50.0 °F 47.5 °F 30.14 in Calm     91% 0.00 in WeatherDisplay:10.37 W/m2 CLR
20:59 50.0 °F 47.5 °F 30.14 in Calm     91% 0.00 in WeatherDisplay:10.37 W/m2 CLR
21:04 47.6 °F 45.7 °F 30.14 in Calm     93% 0.00 in WeatherDisplay:10.37 W/m2 CLR
21:09 47.5 °F 45.6 °F 30.14 in Calm     93% 0.00 in WeatherDisplay:10.37 W/m2 CLR
21:14 47.5 °F 45.6 °F 30.14 in Calm     93% 0.00 in WeatherDisplay:10.37 W/m2 CLR
21:15 47.5 °F 45.6 °F 30.14 in Calm     93% 0.00 in WeatherDisplay:10.37 W/m2 CLR
21:20 47.4 °F 45.5 °F 30.14 in Calm     93% 0.00 in WeatherDisplay:10.37 W/m2 CLR
21:25 47.4 °F 45.5 °F 30.14 in Calm     93% 0.00 in WeatherDisplay:10.37 W/m2 CLR
21:30 47.3 °F 45.4 °F 30.14 in Calm     93% 0.00 in WeatherDisplay:10.37 W/m2 CLR
21:35 47.3 °F 45.4 °F 30.14 in Calm     93% 0.00 in WeatherDisplay:10.37 W/m2 CLR
21:40 47.3 °F 45.3 °F 30.14 in Calm     93% 0.00 in WeatherDisplay:10.37 W/m2 CLR
21:45 47.2 °F 45.3 °F 30.14 in Calm     93% 0.00 in WeatherDisplay:10.37 W/m2 CLR
21:50 47.1 °F 45.2 °F 30.14 in Calm     93% 0.00 in WeatherDisplay:10.37 W/m2 CLR
21:55 47.1 °F 45.1 °F 30.14 in Calm     93% 0.00 in WeatherDisplay:10.37 W/m2 CLR
22:00 46.9 °F 45.0 °F 30.14 in Calm     93% 0.00 in WeatherDisplay:10.37 W/m2 CLR
22:05 46.8 °F 44.9 °F 30.15 in Calm     93% 0.00 in WeatherDisplay:10.37 W/m2 CLR
22:10 46.8 °F 44.9 °F 30.15 in Calm     93% 0.00 in WeatherDisplay:10.37 W/m2 CLR
22:15 46.6 °F 44.7 °F 30.15 in Calm     93% 0.00 in WeatherDisplay:10.37 W/m2 CLR
22:20 46.5 °F 44.6 °F 30.15 in Calm     93% 0.00 in WeatherDisplay:10.37 W/m2 CLR
22:25 46.5 °F 44.6 °F 30.15 in Calm     93% 0.00 in WeatherDisplay:10.37 W/m2 CLR
22:30 46.4 °F 44.5 °F 30.15 in Calm     93% 0.00 in WeatherDisplay:10.37 W/m2 CLR
22:35 46.3 °F 44.4 °F 30.15 in Calm     93% 0.00 in WeatherDisplay:10.37 W/m2 CLR
22:40 46.2 °F 44.3 °F 30.15 in Calm     93% 0.00 in WeatherDisplay:10.37 W/m2 CLR
22:45 46.1 °F 44.2 °F 30.15 in Calm     93% 0.00 in WeatherDisplay:10.37 W/m2 CLR
22:50 46.0 °F 44.1 °F 30.15 in Calm     93% 0.00 in WeatherDisplay:10.37 W/m2 CLR
22:55 46.0 °F 44.1 °F 30.15 in Calm     93% 0.00 in WeatherDisplay:10.37 W/m2 CLR
23:00 46.0 °F 44.4 °F 30.15 in Calm     94% 0.00 in WeatherDisplay:10.37 W/m2 CLR
23:05 46.0 °F 44.4 °F 30.15 in Calm     94% 0.00 in WeatherDisplay:10.37 W/m2 CLR
23:10 46.0 °F 44.4 °F 30.15 in Calm     94% 0.00 in WeatherDisplay:10.37 W/m2 CLR
23:15 46.0 °F 44.4 °F 30.15 in Calm     94% 0.00 in WeatherDisplay:10.37 W/m2 CLR
23:20 45.9 °F 44.2 °F 30.15 in Calm     94% 0.00 in WeatherDisplay:10.37 W/m2 CLR
23:25 45.7 °F 44.1 °F 30.15 in Calm     94% 0.00 in WeatherDisplay:10.37 W/m2 CLR
23:30 45.7 °F 44.1 °F 30.15 in Calm     94% 0.00 in WeatherDisplay:10.37 W/m2 CLR
23:35 45.6 °F 44.0 °F 30.15 in Calm     94% 0.00 in WeatherDisplay:10.37 W/m2 CLR
23:40 45.5 °F 43.9 °F 30.15 in Calm     94% 0.00 in WeatherDisplay:10.37 W/m2 CLR
23:45 45.4 °F 43.8 °F 30.15 in Calm     94% 0.00 in WeatherDisplay:10.37 W/m2 CLR
23:50 45.3 °F 43.7 °F 30.15 in Calm     94% 0.00 in WeatherDisplay:10.37 W/m2 CLR
23:55 45.3 °F 43.7 °F 30.15 in Calm     94% 0.00 in WeatherDisplay:10.37 W/m2 CLR
Piedmont Bend
Compliments of Weather Underground - 4 mb